Date,TemperatureHighF,TemperatureAvgF,TemperatureLowF,DewpointHighF,DewpointAvgF,DewpointLowF,HumidityHigh,HumidityAvg,HumidityLow,PressureMaxIn,PressureMinIn,WindSpeedMaxMPH,WindSpeedAvgMPH,GustSpeedMaxMPH,PrecipitationSumIn
2013-9-1,102.2,73.9,57.2,69.3,54.7,40.7,98,58,18,30.22,30.02,12,2,12,0.00
2013-9-2,105.3,72.6,51.8,60.9,52.9,45.7,88,57,17,30.22,23.76,13,2,13,0.00
2013-9-3,109.6,79.8,61.0,60.1,53.5,47.9,74,45,16,30.16,30.02,19,4,19,0.00
2013-9-4,117.1,81.1,0.0,62.0,54.3,45.1,67,43,13,30.19,30.05,13,4,13,0.00
2013-9-5,109.4,84.2,68.2,62.2,54.5,44.0,67,40,14,30.22,30.08,17,3,17,0.00
2013-9-6,122.9,86.6,63.3,58.2,50.3,33.1,64,35,8,30.16,29.93,12,3,12,0.00
2013-9-7,117.3,83.8,61.2,65.6,54.0,38.8,70,41,13,30.10,29.99,10,2,10,0.00
2013-9-8,116.1,84.1,67.6,72.7,55.9,32.8,89,51,8,30.05,29.87,14,4,14,0.00
2013-9-9,113.5,82.9,65.7,65.5,54.1,43.4,95,42,14,30.02,29.87,13,4,13,0.21
2013-9-10,104.9,74.7,62.6,65.6,59.2,51.5,96,64,25,30.19,29.96,13,3,13,0.00
2013-9-11,82.4,68.4,61.2,66.9,61.8,56.1,98,81,53,30.25,30.16,8,2,8,0.29
2013-9-12,96.3,71.0,59.4,76.5,60.1,50.4,98,74,28,30.34,30.25,12,3,12,0.00
2013-9-13,74.5,62.6,57.2,60.3,51.4,46.8,82,68,47,30.28,30.10,13,4,13,0.00
2013-9-14,91.2,68.7,59.5,64.0,56.2,50.3,81,65,41,30.10,29.90,19,6,19,0.00
2013-9-15,70.3,62.8,58.5,64.1,57.7,51.9,98,85,60,30.34,29.96,12,4,12,0.37
2013-9-16,61.2,57.4,55.0,56.1,52.8,51.2,93,85,78,30.37,30.19,10,4,10,0.00
2013-9-17,99.1,68.9,55.2,70.3,59.5,53.2,96,76,31,30.22,29.84,14,5,14,0.00
2013-9-18,108.9,75.8,57.7,69.5,61.4,52.9,95,66,24,29.87,29.72,24,3,24,0.00
2013-9-19,80.1,60.7,46.9,61.7,52.3,40.5,98,76,36,30.22,29.81,14,3,19,0.09
2013-9-20,93.4,59.1,38.7,53.7,44.0,36.8,93,63,24,30.28,30.05,8,1,8,0.00
2013-9-21,101.8,67.5,44.2,57.3,46.3,40.1,88,54,17,30.10,29.84,13,3,13,0.00
2013-9-22,97.3,71.3,54.1,55.1,49.3,44.7,74,49,21,29.84,29.69,28,6,28,0.00
2013-9-23,78.6,62.3,57.0,60.4,48.3,44.9,77,61,42,29.90,29.66,21,6,21,0.00
2013-9-24,97.7,63.6,46.9,53.9,43.8,31.0,94,57,17,30.14,29.90,14,4,14,0.00
2013-9-25,91.6,65.9,45.9,54.0,47.2,39.2,84,56,24,30.02,29.63,26,6,26,0.00
2013-9-26,101.1,71.7,54.9,57.9,48.6,40.8,70,47,18,29.81,29.63,19,4,20,0.00
2013-9-27,70.2,55.4,46.8,54.3,48.5,44.3,98,80,47,29.99,29.72,17,3,17,0.54
2013-9-28,83.3,54.2,38.8,57.4,41.4,30.7,98,70,22,30.14,29.96,16,4,16,0.00
2013-9-29,98.4,61.5,37.8,51.7,38.7,30.6,87,51,16,30.16,29.87,17,4,23,0.00
2013-9-30,101.5,68.6,45.0,53.8,42.4,32.2,77,44,13,29.90,29.81,14,3,14,0.00